sensor_id;sensor_type;location;lat;lon;timestamp;temperature;humidity
14170;DHT22;63889;50.596;8.690;2023-05-07T00:00:32;16.30;99.90
14170;DHT22;63889;50.596;8.690;2023-05-07T00:02:59;16.30;99.90
14170;DHT22;63889;50.596;8.690;2023-05-07T00:05:25;16.10;99.90
14170;DHT22;63889;50.596;8.690;2023-05-07T00:07:51;16.10;99.90
14170;DHT22;63889;50.596;8.690;2023-05-07T00:10:18;16.20;99.90
14170;DHT22;63889;50.596;8.690;2023-05-07T00:12:43;16.30;99.90
14170;DHT22;63889;50.596;8.690;2023-05-07T00:15:09;16.30;99.90
14170;DHT22;63889;50.596;8.690;2023-05-07T00:17:35;16.20;99.90
14170;DHT22;63889;50.596;8.690;2023-05-07T00:20:01;16.20;99.90
14170;DHT22;63889;50.596;8.690;2023-05-07T00:22:26;16.30;99.90
14170;DHT22;63889;50.596;8.690;2023-05-07T00:24:52;16.20;99.90
14170;DHT22;63889;50.596;8.690;2023-05-07T00:27:17;16.20;99.90
14170;DHT22;63889;50.596;8.690;2023-05-07T00:29:43;16.10;99.90
14170;DHT22;63889;50.596;8.690;2023-05-07T00:32:08;16.20;99.90
14170;DHT22;63889;50.596;8.690;2023-05-07T00:34:34;16.20;99.90
14170;DHT22;63889;50.596;8.690;2023-05-07T00:37:00;16.10;99.90
14170;DHT22;63889;50.596;8.690;2023-05-07T00:39:26;16.10;99.90
14170;DHT22;63889;50.596;8.690;2023-05-07T00:41:51;16.10;99.90
14170;DHT22;63889;50.596;8.690;2023-05-07T00:44:17;16.10;99.90
14170;DHT22;63889;50.596;8.690;2023-05-07T00:46:43;16.10;99.90
14170;DHT22;63889;50.596;8.690;2023-05-07T00:49:11;16.20;99.90
14170;DHT22;63889;50.596;8.690;2023-05-07T00:51:36;16.20;99.90
14170;DHT22;63889;50.596;8.690;2023-05-07T00:54:03;16.20;99.90
14170;DHT22;63889;50.596;8.690;2023-05-07T00:56:28;16.10;99.90
14170;DHT22;63889;50.596;8.690;2023-05-07T00:58:54;16.10;99.90
14170;DHT22;63889;50.596;8.690;2023-05-07T01:01:20;16.20;99.90
14170;DHT22;63889;50.596;8.690;2023-05-07T01:03:46;16.10;99.90
14170;DHT22;63889;50.596;8.690;2023-05-07T01:06:13;16.10;99.90
14170;DHT22;63889;50.596;8.690;2023-05-07T01:08:42;16.10;99.90
14170;DHT22;63889;50.596;8.690;2023-05-07T01:11:08;16.10;99.90
14170;DHT22;63889;50.596;8.690;2023-05-07T01:13:35;16.10;99.90
14170;DHT22;63889;50.596;8.690;2023-05-07T01:16:02;16.10;99.90
14170;DHT22;63889;50.596;8.690;2023-05-07T01:18:31;16.10;99.90
14170;DHT22;63889;50.596;8.690;2023-05-07T01:20:59;16.20;99.90
14170;DHT22;63889;50.596;8.690;2023-05-07T01:23:27;16.20;99.90
14170;DHT22;63889;50.596;8.690;2023-05-07T01:25:53;16.20;99.90
14170;DHT22;63889;50.596;8.690;2023-05-07T01:28:19;16.00;99.90
14170;DHT22;63889;50.596;8.690;2023-05-07T01:30:49;16.10;99.90
14170;DHT22;63889;50.596;8.690;2023-05-07T01:33:19;16.10;99.90
14170;DHT22;63889;50.596;8.690;2023-05-07T01:35:50;16.10;99.90
14170;DHT22;63889;50.596;8.690;2023-05-07T01:38:17;16.10;99.90
14170;DHT22;63889;50.596;8.690;2023-05-07T01:40:43;16.10;99.90
14170;DHT22;63889;50.596;8.690;2023-05-07T01:43:09;16.00;99.90
14170;DHT22;63889;50.596;8.690;2023-05-07T01:45:35;16.00;99.90
14170;DHT22;63889;50.596;8.690;2023-05-07T01:48:02;15.90;99.90
14170;DHT22;63889;50.596;8.690;2023-05-07T01:50:29;15.90;99.90
14170;DHT22;63889;50.596;8.690;2023-05-07T01:52:55;15.90;99.90
14170;DHT22;63889;50.596;8.690;2023-05-07T01:55:20;15.90;99.90
14170;DHT22;63889;50.596;8.690;2023-05-07T01:57:49;15.90;99.90
14170;DHT22;63889;50.596;8.690;2023-05-07T02:00:15;15.90;99.90
14170;DHT22;63889;50.596;8.690;2023-05-07T02:02:41;15.90;99.90
14170;DHT22;63889;50.596;8.690;2023-05-07T02:05:06;15.90;99.90
14170;DHT22;63889;50.596;8.690;2023-05-07T02:07:32;15.90;99.90
14170;DHT22;63889;50.596;8.690;2023-05-07T02:09:58;15.90;99.90
14170;DHT22;63889;50.596;8.690;2023-05-07T02:12:23;15.90;99.90
14170;DHT22;63889;50.596;8.690;2023-05-07T02:14:49;15.90;99.90
14170;DHT22;63889;50.596;8.690;2023-05-07T02:17:15;15.80;99.90
14170;DHT22;63889;50.596;8.690;2023-05-07T02:19:40;15.90;99.90
14170;DHT22;63889;50.596;8.690;2023-05-07T02:22:07;15.90;99.90
14170;DHT22;63889;50.596;8.690;2023-05-07T02:24:32;15.70;99.90
14170;DHT22;63889;50.596;8.690;2023-05-07T02:26:58;15.80;99.90
14170;DHT22;63889;50.596;8.690;2023-05-07T02:29:23;15.60;99.90
14170;DHT22;63889;50.596;8.690;2023-05-07T02:31:49;15.60;99.90
14170;DHT22;63889;50.596;8.690;2023-05-07T02:34:16;15.70;99.90
14170;DHT22;63889;50.596;8.690;2023-05-07T02:36:42;15.80;99.90
14170;DHT22;63889;50.596;8.690;2023-05-07T02:39:07;15.80;99.90
14170;DHT22;63889;50.596;8.690;2023-05-07T02:41:33;15.80;99.90
14170;DHT22;63889;50.596;8.690;2023-05-07T02:43:59;15.70;99.90
14170;DHT22;63889;50.596;8.690;2023-05-07T02:46:24;15.60;99.90
14170;DHT22;63889;50.596;8.690;2023-05-07T02:48:50;15.50;99.90
14170;DHT22;63889;50.596;8.690;2023-05-07T02:51:19;15.60;99.90
14170;DHT22;63889;50.596;8.690;2023-05-07T02:53:45;15.50;99.90
14170;DHT22;63889;50.596;8.690;2023-05-07T02:56:11;15.70;99.90
14170;DHT22;63889;50.596;8.690;2023-05-07T02:58:37;15.70;99.90
14170;DHT22;63889;50.596;8.690;2023-05-07T03:01:05;15.70;99.90
14170;DHT22;63889;50.596;8.690;2023-05-07T03:03:30;15.70;99.90
14170;DHT22;63889;50.596;8.690;2023-05-07T03:05:56;15.80;99.90
14170;DHT22;63889;50.596;8.690;2023-05-07T03:08:22;15.80;99.90
14170;DHT22;63889;50.596;8.690;2023-05-07T03:10:48;15.80;99.90
14170;DHT22;63889;50.596;8.690;2023-05-07T03:13:14;15.80;99.90
14170;DHT22;63889;50.596;8.690;2023-05-07T03:15:40;15.70;99.90
14170;DHT22;63889;50.596;8.690;2023-05-07T03:18:05;15.60;99.90
14170;DHT22;63889;50.596;8.690;2023-05-07T03:20:31;15.60;99.90
14170;DHT22;63889;50.596;8.690;2023-05-07T03:22:57;15.60;99.90
14170;DHT22;63889;50.596;8.690;2023-05-07T03:25:22;15.70;99.90
14170;DHT22;63889;50.596;8.690;2023-05-07T03:27:48;15.70;99.90
14170;DHT22;63889;50.596;8.690;2023-05-07T03:30:13;15.60;99.90
14170;DHT22;63889;50.596;8.690;2023-05-07T03:32:39;15.70;99.90
14170;DHT22;63889;50.596;8.690;2023-05-07T03:35:05;15.50;99.90
14170;DHT22;63889;50.596;8.690;2023-05-07T03:37:30;15.60;99.90
14170;DHT22;63889;50.596;8.690;2023-05-07T03:39:56;15.70;99.90
14170;DHT22;63889;50.596;8.690;2023-05-07T03:42:22;15.70;99.90
14170;DHT22;63889;50.596;8.690;2023-05-07T03:44:47;15.70;99.90
14170;DHT22;63889;50.596;8.690;2023-05-07T03:47:13;15.70;99.90
14170;DHT22;63889;50.596;8.690;2023-05-07T03:49:39;15.60;99.90
14170;DHT22;63889;50.596;8.690;2023-05-07T03:52:05;15.50;99.90
14170;DHT22;63889;50.596;8.690;2023-05-07T03:54:31;15.50;99.90
14170;DHT22;63889;50.596;8.690;2023-05-07T03:56:56;15.40;99.90
14170;DHT22;63889;50.596;8.690;2023-05-07T03:59:22;15.50;99.90
14170;DHT22;63889;50.596;8.690;2023-05-07T04:01:48;15.30;99.90
14170;DHT22;63889;50.596;8.690;2023-05-07T04:04:14;15.30;99.90
14170;DHT22;63889;50.596;8.690;2023-05-07T04:06:40;15.30;99.90
14170;DHT22;63889;50.596;8.690;2023-05-07T04:09:05;15.30;99.90
14170;DHT22;63889;50.596;8.690;2023-05-07T04:11:31;15.10;99.90
14170;DHT22;63889;50.596;8.690;2023-05-07T04:13:57;15.10;99.90
14170;DHT22;63889;50.596;8.690;2023-05-07T04:16:23;14.90;99.90
14170;DHT22;63889;50.596;8.690;2023-05-07T04:18:48;15.00;99.90
14170;DHT22;63889;50.596;8.690;2023-05-07T04:21:19;15.20;99.90
14170;DHT22;63889;50.596;8.690;2023-05-07T04:23:45;15.20;99.90
14170;DHT22;63889;50.596;8.690;2023-05-07T04:26:11;15.20;99.90
14170;DHT22;63889;50.596;8.690;2023-05-07T04:28:36;15.20;99.90
14170;DHT22;63889;50.596;8.690;2023-05-07T04:31:02;15.30;99.90
14170;DHT22;63889;50.596;8.690;2023-05-07T04:33:27;15.40;99.90
14170;DHT22;63889;50.596;8.690;2023-05-07T04:35:53;15.20;99.90
14170;DHT22;63889;50.596;8.690;2023-05-07T04:38:18;15.20;99.90
14170;DHT22;63889;50.596;8.690;2023-05-07T04:40:44;15.30;99.90
14170;DHT22;63889;50.596;8.690;2023-05-07T04:43:10;15.30;99.90
14170;DHT22;63889;50.596;8.690;2023-05-07T04:45:36;15.20;99.90
14170;DHT22;63889;50.596;8.690;2023-05-07T04:48:02;15.30;99.90
14170;DHT22;63889;50.596;8.690;2023-05-07T04:50:27;15.20;99.90
14170;DHT22;63889;50.596;8.690;2023-05-07T04:52:53;15.20;99.90
14170;DHT22;63889;50.596;8.690;2023-05-07T04:55:18;15.20;99.90
14170;DHT22;63889;50.596;8.690;2023-05-07T04:57:44;15.30;99.90
14170;DHT22;63889;50.596;8.690;2023-05-07T05:00:10;15.20;99.90
14170;DHT22;63889;50.596;8.690;2023-05-07T05:02:39;15.10;99.90
14170;DHT22;63889;50.596;8.690;2023-05-07T05:05:05;15.10;99.90
14170;DHT22;63889;50.596;8.690;2023-05-07T05:07:31;15.20;99.90
14170;DHT22;63889;50.596;8.690;2023-05-07T05:09:56;15.20;99.90
14170;DHT22;63889;50.596;8.690;2023-05-07T05:12:23;15.20;99.90
14170;DHT22;63889;50.596;8.690;2023-05-07T05:14:48;15.20;99.90
14170;DHT22;63889;50.596;8.690;2023-05-07T05:17:14;15.20;99.90
14170;DHT22;63889;50.596;8.690;2023-05-07T05:19:39;15.30;99.90
14170;DHT22;63889;50.596;8.690;2023-05-07T05:22:05;15.40;99.90
14170;DHT22;63889;50.596;8.690;2023-05-07T05:24:31;15.40;99.90
14170;DHT22;63889;50.596;8.690;2023-05-07T05:26:56;15.40;99.90
14170;DHT22;63889;50.596;8.690;2023-05-07T05:29:22;15.40;99.90
14170;DHT22;63889;50.596;8.690;2023-05-07T05:31:48;15.30;99.90
14170;DHT22;63889;50.596;8.690;2023-05-07T05:34:13;15.20;99.90
14170;DHT22;63889;50.596;8.690;2023-05-07T05:36:39;15.20;99.90
14170;DHT22;63889;50.596;8.690;2023-05-07T05:39:04;15.20;99.90
14170;DHT22;63889;50.596;8.690;2023-05-07T05:41:31;15.10;99.90
14170;DHT22;63889;50.596;8.690;2023-05-07T05:43:59;15.20;99.90
14170;DHT22;63889;50.596;8.690;2023-05-07T05:46:25;14.90;99.90
14170;DHT22;63889;50.596;8.690;2023-05-07T05:48:50;15.10;99.90
14170;DHT22;63889;50.596;8.690;2023-05-07T05:51:16;15.20;99.90
14170;DHT22;63889;50.596;8.690;2023-05-07T05:53:41;15.20;99.90
14170;DHT22;63889;50.596;8.690;2023-05-07T05:56:07;15.30;99.90
14170;DHT22;63889;50.596;8.690;2023-05-07T05:58:33;15.30;99.90
14170;DHT22;63889;50.596;8.690;2023-05-07T06:00:58;15.30;99.90
14170;DHT22;63889;50.596;8.690;2023-05-07T06:03:24;15.40;99.90
14170;DHT22;63889;50.596;8.690;2023-05-07T06:05:49;15.50;99.90
14170;DHT22;63889;50.596;8.690;2023-05-07T06:08:15;15.50;99.90
14170;DHT22;63889;50.596;8.690;2023-05-07T06:10:41;15.40;99.90
14170;DHT22;63889;50.596;8.690;2023-05-07T06:13:07;15.40;99.90
14170;DHT22;63889;50.596;8.690;2023-05-07T06:15:32;15.40;99.90
14170;DHT22;63889;50.596;8.690;2023-05-07T06:17:58;15.50;99.90
14170;DHT22;63889;50.596;8.690;2023-05-07T06:20:23;15.60;99.90
14170;DHT22;63889;50.596;8.690;2023-05-07T06:22:49;15.30;99.90
14170;DHT22;63889;50.596;8.690;2023-05-07T06:25:14;15.50;99.90
14170;DHT22;63889;50.596;8.690;2023-05-07T06:27:40;15.60;99.90
14170;DHT22;63889;50.596;8.690;2023-05-07T06:30:07;15.60;99.90
14170;DHT22;63889;50.596;8.690;2023-05-07T06:32:33;15.60;99.90
14170;DHT22;63889;50.596;8.690;2023-05-07T06:34:59;15.70;99.90
14170;DHT22;63889;50.596;8.690;2023-05-07T06:37:24;15.70;99.90
14170;DHT22;63889;50.596;8.690;2023-05-07T06:39:50;15.70;99.90
14170;DHT22;63889;50.596;8.690;2023-05-07T06:42:16;15.80;99.90
14170;DHT22;63889;50.596;8.690;2023-05-07T06:44:41;15.80;99.90
14170;DHT22;63889;50.596;8.690;2023-05-07T06:47:07;15.80;99.90
14170;DHT22;63889;50.596;8.690;2023-05-07T06:49:32;15.90;99.90
14170;DHT22;63889;50.596;8.690;2023-05-07T06:51:58;16.00;99.90
14170;DHT22;63889;50.596;8.690;2023-05-07T06:54:24;15.90;99.90
14170;DHT22;63889;50.596;8.690;2023-05-07T06:56:49;16.00;99.90
14170;DHT22;63889;50.596;8.690;2023-05-07T06:59:15;16.00;99.90
14170;DHT22;63889;50.596;8.690;2023-05-07T07:01:41;16.20;99.90
14170;DHT22;63889;50.596;8.690;2023-05-07T07:04:06;16.20;99.90
14170;DHT22;63889;50.596;8.690;2023-05-07T07:06:32;16.20;99.90
14170;DHT22;63889;50.596;8.690;2023-05-07T07:08:59;16.20;99.90
14170;DHT22;63889;50.596;8.690;2023-05-07T07:11:24;16.20;99.90
14170;DHT22;63889;50.596;8.690;2023-05-07T07:13:50;16.00;99.90
14170;DHT22;63889;50.596;8.690;2023-05-07T07:16:16;16.10;99.90
14170;DHT22;63889;50.596;8.690;2023-05-07T07:18:42;16.20;99.90
14170;DHT22;63889;50.596;8.690;2023-05-07T07:21:07;16.40;99.90
14170;DHT22;63889;50.596;8.690;2023-05-07T07:23:33;16.50;99.90
14170;DHT22;63889;50.596;8.690;2023-05-07T07:25:58;16.50;99.90
14170;DHT22;63889;50.596;8.690;2023-05-07T07:28:24;16.40;99.90
14170;DHT22;63889;50.596;8.690;2023-05-07T07:30:49;16.50;99.90
14170;DHT22;63889;50.596;8.690;2023-05-07T07:33:15;16.40;99.90
14170;DHT22;63889;50.596;8.690;2023-05-07T07:35:42;16.30;99.90
14170;DHT22;63889;50.596;8.690;2023-05-07T07:38:07;16.50;99.90
14170;DHT22;63889;50.596;8.690;2023-05-07T07:40:35;16.40;99.90
14170;DHT22;63889;50.596;8.690;2023-05-07T07:43:00;16.50;99.90
14170;DHT22;63889;50.596;8.690;2023-05-07T07:45:26;16.60;99.90
14170;DHT22;63889;50.596;8.690;2023-05-07T07:47:52;16.60;99.90
14170;DHT22;63889;50.596;8.690;2023-05-07T07:50:17;16.70;99.90
14170;DHT22;63889;50.596;8.690;2023-05-07T07:52:43;16.70;99.90
14170;DHT22;63889;50.596;8.690;2023-05-07T07:55:09;16.80;99.90
14170;DHT22;63889;50.596;8.690;2023-05-07T07:57:35;16.90;99.90
14170;DHT22;63889;50.596;8.690;2023-05-07T08:00:00;16.80;99.90
14170;DHT22;63889;50.596;8.690;2023-05-07T08:02:26;16.80;99.90
14170;DHT22;63889;50.596;8.690;2023-05-07T08:04:51;16.90;99.90
14170;DHT22;63889;50.596;8.690;2023-05-07T08:07:17;17.00;99.90
14170;DHT22;63889;50.596;8.690;2023-05-07T08:09:45;17.10;99.90
14170;DHT22;63889;50.596;8.690;2023-05-07T08:12:11;17.10;99.90
14170;DHT22;63889;50.596;8.690;2023-05-07T08:14:37;17.10;99.90
14170;DHT22;63889;50.596;8.690;2023-05-07T08:17:03;17.20;99.90
14170;DHT22;63889;50.596;8.690;2023-05-07T08:19:28;17.20;99.90
14170;DHT22;63889;50.596;8.690;2023-05-07T08:21:54;17.20;99.90
14170;DHT22;63889;50.596;8.690;2023-05-07T08:24:20;17.30;99.90
14170;DHT22;63889;50.596;8.690;2023-05-07T08:26:46;17.20;99.90
14170;DHT22;63889;50.596;8.690;2023-05-07T08:29:11;17.30;99.90
14170;DHT22;63889;50.596;8.690;2023-05-07T08:31:37;17.30;99.90
14170;DHT22;63889;50.596;8.690;2023-05-07T08:34:05;17.40;99.90
14170;DHT22;63889;50.596;8.690;2023-05-07T08:36:32;17.30;99.90
14170;DHT22;63889;50.596;8.690;2023-05-07T08:38:57;17.40;99.90
14170;DHT22;63889;50.596;8.690;2023-05-07T08:41:23;17.40;99.90
14170;DHT22;63889;50.596;8.690;2023-05-07T08:43:50;17.30;99.90
14170;DHT22;63889;50.596;8.690;2023-05-07T08:46:22;17.30;99.90
14170;DHT22;63889;50.596;8.690;2023-05-07T08:48:48;17.30;99.90
14170;DHT22;63889;50.596;8.690;2023-05-07T08:51:17;17.40;99.90
14170;DHT22;63889;50.596;8.690;2023-05-07T08:53:44;17.40;99.90
14170;DHT22;63889;50.596;8.690;2023-05-07T08:56:10;17.50;99.90
14170;DHT22;63889;50.596;8.690;2023-05-07T08:58:36;17.60;99.90
14170;DHT22;63889;50.596;8.690;2023-05-07T09:01:12;17.60;99.90
14170;DHT22;63889;50.596;8.690;2023-05-07T09:03:39;17.60;99.90
14170;DHT22;63889;50.596;8.690;2023-05-07T09:06:04;17.80;99.90
14170;DHT22;63889;50.596;8.690;2023-05-07T09:08:32;17.90;99.90
14170;DHT22;63889;50.596;8.690;2023-05-07T09:10:58;17.90;99.90
14170;DHT22;63889;50.596;8.690;2023-05-07T09:13:24;18.10;99.90
14170;DHT22;63889;50.596;8.690;2023-05-07T09:15:49;18.00;99.90
14170;DHT22;63889;50.596;8.690;2023-05-07T09:18:15;18.10;99.90
14170;DHT22;63889;50.596;8.690;2023-05-07T09:20:41;18.20;99.90
14170;DHT22;63889;50.596;8.690;2023-05-07T09:23:07;18.20;99.90
14170;DHT22;63889;50.596;8.690;2023-05-07T09:25:34;18.40;99.90
14170;DHT22;63889;50.596;8.690;2023-05-07T09:28:01;18.60;99.90
14170;DHT22;63889;50.596;8.690;2023-05-07T09:30:33;18.70;99.90
14170;DHT22;63889;50.596;8.690;2023-05-07T09:33:02;18.70;99.90
14170;DHT22;63889;50.596;8.690;2023-05-07T09:35:29;18.80;99.90
14170;DHT22;63889;50.596;8.690;2023-05-07T09:37:58;18.80;99.90
14170;DHT22;63889;50.596;8.690;2023-05-07T09:40:27;19.00;99.90
14170;DHT22;63889;50.596;8.690;2023-05-07T09:42:53;18.90;99.90
14170;DHT22;63889;50.596;8.690;2023-05-07T09:45:26;19.10;99.90
14170;DHT22;63889;50.596;8.690;2023-05-07T09:47:57;19.10;99.90
14170;DHT22;63889;50.596;8.690;2023-05-07T09:50:28;19.10;99.90
14170;DHT22;63889;50.596;8.690;2023-05-07T09:52:57;19.30;99.90
14170;DHT22;63889;50.596;8.690;2023-05-07T09:55:23;19.40;99.90
14170;DHT22;63889;50.596;8.690;2023-05-07T09:57:53;19.50;99.90
14170;DHT22;63889;50.596;8.690;2023-05-07T10:00:20;19.60;99.90
14170;DHT22;63889;50.596;8.690;2023-05-07T10:02:48;19.70;99.90
14170;DHT22;63889;50.596;8.690;2023-05-07T10:05:15;19.90;99.90
14170;DHT22;63889;50.596;8.690;2023-05-07T10:07:41;20.00;99.90
14170;DHT22;63889;50.596;8.690;2023-05-07T10:10:07;20.20;99.90
14170;DHT22;63889;50.596;8.690;2023-05-07T10:12:33;20.40;99.90
14170;DHT22;63889;50.596;8.690;2023-05-07T10:15:09;20.60;99.90
14170;DHT22;63889;50.596;8.690;2023-05-07T10:17:36;20.80;99.90
14170;DHT22;63889;50.596;8.690;2023-05-07T10:20:03;21.00;99.90
14170;DHT22;63889;50.596;8.690;2023-05-07T10:22:51;21.20;99.90
14170;DHT22;63889;50.596;8.690;2023-05-07T10:25:28;21.30;99.90
14170;DHT22;63889;50.596;8.690;2023-05-07T10:27:58;21.50;99.90
14170;DHT22;63889;50.596;8.690;2023-05-07T10:30:52;21.50;99.90
14170;DHT22;63889;50.596;8.690;2023-05-07T10:33:24;21.40;99.90
14170;DHT22;63889;50.596;8.690;2023-05-07T10:35:51;21.30;99.90
14170;DHT22;63889;50.596;8.690;2023-05-07T10:38:21;21.20;99.90
14170;DHT22;63889;50.596;8.690;2023-05-07T10:40:46;21.10;99.90
14170;DHT22;63889;50.596;8.690;2023-05-07T10:43:12;21.10;99.90
14170;DHT22;63889;50.596;8.690;2023-05-07T10:45:37;21.10;99.90
14170;DHT22;63889;50.596;8.690;2023-05-07T10:48:16;21.10;99.90
14170;DHT22;63889;50.596;8.690;2023-05-07T10:50:43;21.10;99.90
14170;DHT22;63889;50.596;8.690;2023-05-07T10:55:51;21.10;99.90
14170;DHT22;63889;50.596;8.690;2023-05-07T10:58:24;21.10;99.90
14170;DHT22;63889;50.596;8.690;2023-05-07T11:01:01;21.20;99.90
14170;DHT22;63889;50.596;8.690;2023-05-07T11:03:27;21.20;99.90
14170;DHT22;63889;50.596;8.690;2023-05-07T11:11:18;21.20;99.90
14170;DHT22;63889;50.596;8.690;2023-05-07T11:13:46;21.10;99.90
14170;DHT22;63889;50.596;8.690;2023-05-07T11:16:18;21.00;99.90
14170;DHT22;63889;50.596;8.690;2023-05-07T11:18:52;21.10;99.90
14170;DHT22;63889;50.596;8.690;2023-05-07T11:21:37;21.10;99.90
14170;DHT22;63889;50.596;8.690;2023-05-07T11:24:04;21.20;99.90
14170;DHT22;63889;50.596;8.690;2023-05-07T11:26:41;21.10;99.90
14170;DHT22;63889;50.596;8.690;2023-05-07T11:29:25;21.20;99.90
14170;DHT22;63889;50.596;8.690;2023-05-07T11:31:53;21.50;99.90
14170;DHT22;63889;50.596;8.690;2023-05-07T11:34:25;21.50;99.90
14170;DHT22;63889;50.596;8.690;2023-05-07T11:36:51;21.60;99.90
14170;DHT22;63889;50.596;8.690;2023-05-07T11:39:43;21.80;99.90
14170;DHT22;63889;50.596;8.690;2023-05-07T11:42:31;21.90;99.90
14170;DHT22;63889;50.596;8.690;2023-05-07T11:44:58;21.90;99.90
14170;DHT22;63889;50.596;8.690;2023-05-07T11:47:24;22.20;99.90
14170;DHT22;63889;50.596;8.690;2023-05-07T11:49:52;22.30;99.90
14170;DHT22;63889;50.596;8.690;2023-05-07T11:52:19;22.60;99.90
14170;DHT22;63889;50.596;8.690;2023-05-07T11:54:52;22.70;99.90
14170;DHT22;63889;50.596;8.690;2023-05-07T11:57:18;23.20;99.90
14170;DHT22;63889;50.596;8.690;2023-05-07T12:02:14;23.90;99.90
14170;DHT22;63889;50.596;8.690;2023-05-07T12:04:40;23.90;99.90
14170;DHT22;63889;50.596;8.690;2023-05-07T12:07:14;24.00;99.90
14170;DHT22;63889;50.596;8.690;2023-05-07T12:09:46;23.80;99.90
14170;DHT22;63889;50.596;8.690;2023-05-07T12:12:13;24.20;99.90
14170;DHT22;63889;50.596;8.690;2023-05-07T12:14:45;24.60;99.90
14170;DHT22;63889;50.596;8.690;2023-05-07T12:17:12;25.00;99.90
14170;DHT22;63889;50.596;8.690;2023-05-07T12:19:39;25.40;99.90
14170;DHT22;63889;50.596;8.690;2023-05-07T12:22:05;25.50;99.90
14170;DHT22;63889;50.596;8.690;2023-05-07T12:24:49;25.30;99.90
14170;DHT22;63889;50.596;8.690;2023-05-07T12:27:16;25.40;99.90
14170;DHT22;63889;50.596;8.690;2023-05-07T12:29:46;25.50;99.90
14170;DHT22;63889;50.596;8.690;2023-05-07T12:32:20;25.50;99.90
14170;DHT22;63889;50.596;8.690;2023-05-07T12:34:46;25.70;99.90
14170;DHT22;63889;50.596;8.690;2023-05-07T12:37:14;26.00;99.90
14170;DHT22;63889;50.596;8.690;2023-05-07T12:40:10;26.20;99.90
14170;DHT22;63889;50.596;8.690;2023-05-07T12:42:36;26.00;99.90
14170;DHT22;63889;50.596;8.690;2023-05-07T12:45:12;26.10;99.90
14170;DHT22;63889;50.596;8.690;2023-05-07T12:47:38;26.30;99.90
14170;DHT22;63889;50.596;8.690;2023-05-07T12:50:07;26.10;99.90
14170;DHT22;63889;50.596;8.690;2023-05-07T12:52:33;25.90;99.90
14170;DHT22;63889;50.596;8.690;2023-05-07T12:55:05;25.50;99.90
14170;DHT22;63889;50.596;8.690;2023-05-07T12:57:41;25.40;99.90
14170;DHT22;63889;50.596;8.690;2023-05-07T13:00:07;25.60;99.90
14170;DHT22;63889;50.596;8.690;2023-05-07T13:02:37;25.40;99.90
14170;DHT22;63889;50.596;8.690;2023-05-07T13:05:03;25.30;99.90
14170;DHT22;63889;50.596;8.690;2023-05-07T13:07:29;25.30;99.90
14170;DHT22;63889;50.596;8.690;2023-05-07T13:09:54;25.30;99.90
14170;DHT22;63889;50.596;8.690;2023-05-07T13:12:20;25.20;99.90
14170;DHT22;63889;50.596;8.690;2023-05-07T13:14:45;25.40;99.90
14170;DHT22;63889;50.596;8.690;2023-05-07T13:17:11;25.60;99.90
14170;DHT22;63889;50.596;8.690;2023-05-07T13:19:36;25.70;99.90
14170;DHT22;63889;50.596;8.690;2023-05-07T13:22:03;25.30;99.90
14170;DHT22;63889;50.596;8.690;2023-05-07T13:24:28;25.10;99.90
14170;DHT22;63889;50.596;8.690;2023-05-07T13:26:54;25.30;99.90
14170;DHT22;63889;50.596;8.690;2023-05-07T13:29:20;25.20;99.90
14170;DHT22;63889;50.596;8.690;2023-05-07T13:31:50;24.90;99.90
14170;DHT22;63889;50.596;8.690;2023-05-07T13:34:16;24.70;99.90
14170;DHT22;63889;50.596;8.690;2023-05-07T13:36:41;25.10;99.90
14170;DHT22;63889;50.596;8.690;2023-05-07T13:39:07;25.30;99.90
14170;DHT22;63889;50.596;8.690;2023-05-07T13:41:34;25.40;99.90
14170;DHT22;63889;50.596;8.690;2023-05-07T13:43:59;25.10;99.90
14170;DHT22;63889;50.596;8.690;2023-05-07T13:46:25;24.70;99.90
14170;DHT22;63889;50.596;8.690;2023-05-07T13:48:51;24.70;99.90
14170;DHT22;63889;50.596;8.690;2023-05-07T13:51:16;24.80;99.90
14170;DHT22;63889;50.596;8.690;2023-05-07T13:53:42;24.70;99.90
14170;DHT22;63889;50.596;8.690;2023-05-07T13:56:07;24.50;99.90
14170;DHT22;63889;50.596;8.690;2023-05-07T13:58:33;24.50;99.90
14170;DHT22;63889;50.596;8.690;2023-05-07T14:00:58;24.60;99.90
14170;DHT22;63889;50.596;8.690;2023-05-07T14:03:24;24.80;99.90
14170;DHT22;63889;50.596;8.690;2023-05-07T14:05:49;24.60;99.90
14170;DHT22;63889;50.596;8.690;2023-05-07T14:08:15;24.40;99.90
14170;DHT22;63889;50.596;8.690;2023-05-07T14:10:42;24.60;99.90
14170;DHT22;63889;50.596;8.690;2023-05-07T14:13:08;24.20;99.90
14170;DHT22;63889;50.596;8.690;2023-05-07T14:15:33;24.00;99.90
14170;DHT22;63889;50.596;8.690;2023-05-07T14:18:00;23.90;99.90
14170;DHT22;63889;50.596;8.690;2023-05-07T14:20:25;23.80;99.90
14170;DHT22;63889;50.596;8.690;2023-05-07T14:22:51;23.80;99.90
14170;DHT22;63889;50.596;8.690;2023-05-07T14:25:17;23.80;99.90
14170;DHT22;63889;50.596;8.690;2023-05-07T14:27:42;23.90;99.90
14170;DHT22;63889;50.596;8.690;2023-05-07T14:30:08;23.90;99.90
14170;DHT22;63889;50.596;8.690;2023-05-07T14:32:34;23.60;99.90
14170;DHT22;63889;50.596;8.690;2023-05-07T14:35:00;23.50;99.90
14170;DHT22;63889;50.596;8.690;2023-05-07T14:37:25;23.60;99.90
14170;DHT22;63889;50.596;8.690;2023-05-07T14:39:51;23.60;99.90
14170;DHT22;63889;50.596;8.690;2023-05-07T14:42:17;23.40;99.90
14170;DHT22;63889;50.596;8.690;2023-05-07T14:44:42;23.40;99.90
14170;DHT22;63889;50.596;8.690;2023-05-07T14:47:10;23.30;99.90
14170;DHT22;63889;50.596;8.690;2023-05-07T14:49:35;23.20;99.90
14170;DHT22;63889;50.596;8.690;2023-05-07T14:52:01;23.20;99.90
14170;DHT22;63889;50.596;8.690;2023-05-07T14:54:27;23.20;99.90
14170;DHT22;63889;50.596;8.690;2023-05-07T14:56:52;23.30;99.90
14170;DHT22;63889;50.596;8.690;2023-05-07T14:59:19;23.30;99.90
14170;DHT22;63889;50.596;8.690;2023-05-07T15:01:47;23.30;99.90
14170;DHT22;63889;50.596;8.690;2023-05-07T15:04:12;23.30;99.90
14170;DHT22;63889;50.596;8.690;2023-05-07T15:06:38;23.40;99.90
14170;DHT22;63889;50.596;8.690;2023-05-07T15:09:04;23.40;99.90
14170;DHT22;63889;50.596;8.690;2023-05-07T15:11:29;23.40;99.90
14170;DHT22;63889;50.596;8.690;2023-05-07T15:13:55;23.20;99.90
14170;DHT22;63889;50.596;8.690;2023-05-07T15:16:21;23.20;99.90
14170;DHT22;63889;50.596;8.690;2023-05-07T15:18:47;23.20;99.90
14170;DHT22;63889;50.596;8.690;2023-05-07T15:21:13;22.90;99.90
14170;DHT22;63889;50.596;8.690;2023-05-07T15:23:38;23.00;99.90
14170;DHT22;63889;50.596;8.690;2023-05-07T15:26:04;22.90;99.90
14170;DHT22;63889;50.596;8.690;2023-05-07T15:28:30;22.90;99.90
14170;DHT22;63889;50.596;8.690;2023-05-07T15:30:56;22.90;99.90
14170;DHT22;63889;50.596;8.690;2023-05-07T15:33:23;22.80;99.90
14170;DHT22;63889;50.596;8.690;2023-05-07T15:35:48;22.80;99.90
14170;DHT22;63889;50.596;8.690;2023-05-07T15:38:14;22.80;99.90